createdAt,value
2023-02-19T00:00:02.696Z,95574.00
2023-02-19T00:01:02.459Z,95572.00
2023-02-19T00:02:02.518Z,95574.00
2023-02-19T00:03:02.515Z,95574.00
2023-02-19T00:04:02.482Z,95570.00
2023-02-19T00:05:02.501Z,95568.00
2023-02-19T00:06:02.430Z,95572.00
2023-02-19T00:07:02.495Z,95570.00
2023-02-19T00:08:02.399Z,95568.00
2023-02-19T00:09:02.441Z,95568.00
2023-02-19T00:10:02.445Z,95570.00
2023-02-19T00:11:02.377Z,95572.00
2023-02-19T00:12:02.377Z,95570.00
2023-02-19T00:13:02.385Z,95568.00
2023-02-19T00:14:02.372Z,95564.00
2023-02-19T00:15:02.657Z,95564.00
2023-02-19T00:22:02.447Z,95564.00
2023-02-19T00:23:02.469Z,95566.00
2023-02-19T00:25:22.210Z,95570.00
2023-02-19T00:26:22.088Z,95572.00
2023-02-19T00:27:22.120Z,95570.00
2023-02-19T00:28:22.140Z,95568.00
2023-02-19T00:29:22.046Z,95572.00
2023-02-19T00:30:22.080Z,95572.00
2023-02-19T00:31:22.191Z,95572.00
2023-02-19T00:32:22.107Z,95574.00
2023-02-19T00:33:22.040Z,95572.00
2023-02-19T00:34:21.995Z,95578.00
2023-02-19T00:35:22.056Z,95574.00
2023-02-19T00:36:22.075Z,95576.00
2023-02-19T00:37:22.067Z,95576.00
2023-02-19T00:38:22.117Z,95574.00
2023-02-19T00:39:21.979Z,95578.00
2023-02-19T00:40:21.988Z,95582.00
2023-02-19T00:41:21.979Z,95576.00
2023-02-19T00:42:22.346Z,95574.00
2023-02-19T00:43:22.029Z,95570.00
2023-02-19T00:44:21.953Z,95572.00
2023-02-19T00:45:21.967Z,95574.00
2023-02-19T00:46:22.060Z,95580.00
2023-02-19T00:47:22.123Z,95578.00
2023-02-19T00:48:21.941Z,95578.00
2023-02-19T00:49:21.997Z,95578.00
2023-02-19T00:50:21.948Z,95576.00
2023-02-19T00:51:21.908Z,95574.00
2023-02-19T00:52:21.914Z,95572.00
2023-02-19T00:53:21.885Z,95572.00
2023-02-19T00:54:21.898Z,95570.00
2023-02-19T00:55:21.886Z,95570.00
2023-02-19T00:56:21.916Z,95572.00
2023-02-19T00:57:21.905Z,95570.00
2023-02-19T00:58:21.854Z,95570.00
2023-02-19T00:59:21.855Z,95566.00
2023-02-19T01:00:21.872Z,95566.00
2023-02-19T01:01:21.866Z,95564.00
2023-02-19T01:02:21.866Z,95564.00
2023-02-19T01:03:21.846Z,95562.00
2023-02-19T01:04:22.048Z,95562.00
2023-02-19T01:05:21.784Z,95564.00
2023-02-19T01:06:21.803Z,95562.00
2023-02-19T01:07:21.894Z,95560.00
2023-02-19T01:08:21.776Z,95560.00
2023-02-19T01:09:21.810Z,95560.00
2023-02-19T01:10:22.280Z,95564.00
2023-02-19T01:11:21.715Z,95566.00
2023-02-19T01:12:21.725Z,95566.00
2023-02-19T01:13:21.705Z,95564.00
2023-02-19T01:14:21.715Z,95560.00
2023-02-19T01:15:21.717Z,95558.00
2023-02-19T01:16:21.812Z,95560.00
2023-02-19T01:29:42.145Z,95552.00
2023-02-19T01:30:41.992Z,95556.00
2023-02-19T01:31:42.326Z,95556.00
2023-02-19T01:32:41.914Z,95558.00
2023-02-19T01:33:41.895Z,95556.00
2023-02-19T01:34:41.876Z,95552.00
2023-02-19T01:35:41.885Z,95552.00
2023-02-19T01:36:42.862Z,95554.00
2023-02-19T01:37:41.873Z,95552.00
2023-02-19T01:38:41.865Z,95552.00
2023-02-19T01:39:41.853Z,95552.00
2023-02-19T01:40:41.865Z,95549.00
2023-02-19T01:41:41.854Z,95552.00
2023-02-19T01:42:41.839Z,95554.00
2023-02-19T01:50:41.771Z,95552.00
2023-02-19T01:51:41.761Z,95549.00
2023-02-19T01:52:42.261Z,95549.00
2023-02-19T01:53:41.797Z,95547.00
2023-02-19T01:54:41.801Z,95547.00
2023-02-19T01:55:41.757Z,95549.00
2023-02-19T01:56:41.718Z,95545.00
2023-02-19T01:57:41.732Z,95547.00
2023-02-19T01:58:41.723Z,95545.00
2023-02-19T02:00:41.822Z,95547.00
2023-02-19T02:01:41.730Z,95541.00
2023-02-19T02:02:41.709Z,95539.00
2023-02-19T02:03:41.725Z,95537.00
2023-02-19T02:04:41.716Z,95537.00
2023-02-19T02:05:41.676Z,95535.00
2023-02-19T02:06:41.669Z,95537.00
2023-02-19T02:22:39.899Z,95519.00
2023-02-19T02:23:39.640Z,95519.00
2023-02-19T02:24:39.555Z,95519.00
2023-02-19T02:25:39.676Z,95519.00
2023-02-19T02:26:39.561Z,95517.00
2023-02-19T02:27:39.556Z,95515.00
2023-02-19T02:30:39.552Z,95519.00
2023-02-19T02:31:39.697Z,95517.00
2023-02-19T02:32:39.581Z,95517.00
2023-02-19T02:33:39.470Z,95517.00
2023-02-19T02:34:39.487Z,95511.00
2023-02-19T02:35:39.513Z,95511.00
2023-02-19T02:36:39.513Z,95515.00
2023-02-19T02:37:39.469Z,95509.00
2023-02-19T02:38:45.408Z,95507.00
2023-02-19T02:39:40.476Z,95509.00
2023-02-19T02:40:39.451Z,95513.00
2023-02-19T02:41:39.442Z,95511.00
2023-02-19T02:42:39.556Z,95507.00
2023-02-19T02:43:39.424Z,95507.00
2023-02-19T02:44:39.442Z,95507.00
2023-02-19T02:45:39.500Z,95511.00
2023-02-19T02:46:39.391Z,95507.00
2023-02-19T02:47:39.473Z,95500.00
2023-02-19T02:48:39.470Z,95498.00
2023-02-19T02:49:39.433Z,95503.00
2023-02-19T02:50:40.251Z,95505.00
2023-02-19T02:51:39.535Z,95509.00
2023-02-19T02:52:39.606Z,95507.00
2023-02-19T02:53:39.836Z,95500.00
2023-02-19T02:54:39.720Z,95502.00
2023-02-19T02:55:39.756Z,95502.00
2023-02-19T02:56:39.969Z,95502.00
2023-02-19T02:59:02.128Z,95492.00
2023-02-19T03:13:47.649Z,95478.00
2023-02-19T03:14:47.454Z,95482.00
2023-02-19T03:15:47.186Z,95486.00
2023-02-19T03:16:47.171Z,95482.00
2023-02-19T03:17:47.068Z,95476.00
2023-02-19T03:18:47.092Z,95474.00
2023-02-19T03:19:47.051Z,95480.00
2023-02-19T03:20:47.077Z,95478.00
2023-02-19T03:21:47.108Z,95486.00
2023-02-19T03:22:47.016Z,95482.00
2023-02-19T03:23:47.055Z,95486.00
2023-02-19T03:24:47.097Z,95482.00
2023-02-19T03:25:47.019Z,95476.00
2023-02-19T03:26:46.999Z,95468.00
2023-02-19T03:27:47.076Z,95472.00
2023-02-19T03:28:47.074Z,95480.00
2023-02-19T03:29:47.523Z,95484.00
2023-02-19T03:30:46.982Z,95480.00
2023-02-19T03:31:47.110Z,95474.00
2023-02-19T03:52:14.183Z,95451.00
2023-02-19T03:53:27.328Z,95453.00
2023-02-19T03:55:41.919Z,95458.00
2023-02-19T03:58:01.245Z,95445.00
2023-02-19T04:06:00.359Z,95439.00
2023-02-19T04:16:19.279Z,95439.00
2023-02-19T04:18:38.321Z,95417.00
2023-02-19T04:19:39.455Z,95427.00
2023-02-19T04:27:17.678Z,95417.00
2023-02-19T04:28:17.757Z,95427.00
2023-02-19T04:29:17.352Z,95433.00
2023-02-19T04:30:17.377Z,95431.00
2023-02-19T04:31:17.444Z,95437.00
2023-02-19T04:32:17.316Z,95441.00
2023-02-19T04:33:17.302Z,95439.00
2023-02-19T04:34:17.365Z,95435.00
2023-02-19T04:35:17.286Z,95431.00
2023-02-19T04:37:37.177Z,95445.00
2023-02-19T04:38:37.238Z,95449.00
2023-02-19T04:39:37.018Z,95447.00
2023-02-19T04:40:36.992Z,95437.00
2023-02-19T04:41:37.043Z,95429.00
2023-02-19T04:42:37.006Z,95429.00
2023-02-19T04:43:37.008Z,95427.00
2023-02-19T04:44:37.073Z,95425.00
2023-02-19T04:45:37.371Z,95425.00
2023-02-19T04:46:36.970Z,95427.00
2023-02-19T04:47:37.012Z,95427.00
2023-02-19T04:48:36.966Z,95433.00
2023-02-19T04:49:37.017Z,95415.00
2023-02-19T04:50:36.953Z,95403.00
2023-02-19T04:51:36.964Z,95394.00
2023-02-19T04:52:36.974Z,95396.00
2023-02-19T04:53:36.917Z,95400.00
2023-02-19T04:54:36.921Z,95409.00
2023-02-19T04:55:36.932Z,95409.00
2023-02-19T04:56:36.896Z,95415.00
2023-02-19T04:57:36.933Z,95405.00
2023-02-19T04:58:37.035Z,95402.00
2023-02-19T04:59:37.123Z,95405.00
2023-02-19T05:00:37.132Z,95405.00
2023-02-19T05:01:37.258Z,95396.00
2023-02-19T05:02:37.250Z,95392.00
2023-02-19T05:03:37.293Z,95394.00
2023-02-19T05:04:37.459Z,95398.00
2023-02-19T05:05:37.459Z,95400.00
2023-02-19T05:06:37.553Z,95398.00
2023-02-19T05:07:37.553Z,95394.00
2023-02-19T05:08:37.635Z,95392.00
2023-02-19T05:09:37.749Z,95386.00
2023-02-19T05:10:37.774Z,95386.00
2023-02-19T05:11:37.807Z,95390.00
2023-02-19T05:12:37.923Z,95390.00
2023-02-19T05:13:37.999Z,95390.00
2023-02-19T05:14:38.014Z,95390.00
2023-02-19T05:15:54.333Z,95390.00
2023-02-19T05:20:54.492Z,95403.00
2023-02-19T05:26:38.418Z,95413.00
2023-02-19T05:27:38.065Z,95425.00
2023-02-19T05:28:38.106Z,95433.00
2023-02-19T05:29:38.023Z,95425.00
2023-02-19T05:30:38.028Z,95427.00
2023-02-19T05:31:38.256Z,95433.00
2023-02-19T05:32:38.099Z,95433.00
2023-02-19T05:33:38.345Z,95437.00
2023-02-19T05:34:37.983Z,95437.00
2023-02-19T05:35:38.047Z,95437.00
2023-02-19T05:36:37.994Z,95435.00
2023-02-19T05:37:38.011Z,95435.00
2023-02-19T05:38:37.973Z,95447.00
2023-02-19T05:39:38.014Z,95462.00
2023-02-19T05:40:37.992Z,95484.00
2023-02-19T05:41:37.937Z,95488.00
2023-02-19T05:42:37.956Z,95480.00
2023-02-19T05:43:37.952Z,95482.00
2023-02-19T05:44:37.972Z,95490.00
2023-02-19T05:45:37.926Z,95503.00
2023-02-19T05:46:37.965Z,95511.00
2023-02-19T05:47:37.989Z,95515.00
2023-02-19T05:48:37.902Z,95513.00
2023-02-19T05:49:37.921Z,95507.00
2023-02-19T05:50:39.824Z,95503.00
2023-02-19T05:51:37.920Z,95509.00
2023-02-19T05:52:37.867Z,95529.00
2023-02-19T05:53:37.843Z,95562.00
2023-02-19T05:54:37.852Z,95584.00
2023-02-19T05:55:37.854Z,95576.00
2023-02-19T05:56:37.868Z,95552.00
2023-02-19T05:57:37.873Z,95539.00
2023-02-19T05:58:37.820Z,95541.00
2023-02-19T05:59:37.865Z,95529.00
2023-02-19T06:00:37.820Z,95527.00
2023-02-19T06:01:37.884Z,95539.00
2023-02-19T06:02:37.890Z,95554.00
2023-02-19T06:03:37.962Z,95568.00
2023-02-19T06:04:37.960Z,95574.00
2023-02-19T06:05:37.962Z,95574.00
2023-02-19T06:06:38.066Z,95578.00
2023-02-19T06:07:38.085Z,95576.00
2023-02-19T06:08:38.056Z,95572.00
2023-02-19T06:09:38.105Z,95568.00
2023-02-19T06:10:38.091Z,95570.00
2023-02-19T06:11:38.115Z,95570.00
2023-02-19T06:12:38.074Z,95554.00
2023-02-19T06:13:38.116Z,95541.00
2023-02-19T06:14:38.139Z,95529.00
2023-02-19T06:15:38.103Z,95529.00
2023-02-19T06:16:38.108Z,95531.00
2023-02-19T06:17:38.158Z,95529.00
2023-02-19T06:18:38.110Z,95535.00
2023-02-19T06:19:38.141Z,95539.00
2023-02-19T06:20:38.125Z,95535.00
2023-02-19T06:21:38.135Z,95531.00
2023-02-19T06:22:38.188Z,95529.00
2023-02-19T06:23:38.245Z,95529.00
2023-02-19T06:24:38.188Z,95533.00
2023-02-19T06:25:38.209Z,95531.00
2023-02-19T06:26:38.186Z,95535.00
2023-02-19T06:27:38.218Z,95535.00
2023-02-19T06:28:38.246Z,95531.00
2023-02-19T06:29:38.259Z,95525.00
2023-02-19T06:30:38.296Z,95525.00
2023-02-19T06:31:38.434Z,95525.00
2023-02-19T06:32:38.357Z,95529.00
2023-02-19T06:33:38.444Z,95531.00
2023-02-19T06:34:38.379Z,95529.00
2023-02-19T06:35:38.390Z,95523.00
2023-02-19T06:36:38.403Z,95523.00
2023-02-19T06:37:38.457Z,95533.00
2023-02-19T06:38:38.507Z,95537.00
2023-02-19T06:39:38.545Z,95535.00
2023-02-19T06:40:38.652Z,95527.00
2023-02-19T06:41:38.714Z,95527.00
2023-02-19T06:48:39.876Z,95517.00
2023-02-19T06:49:39.982Z,95523.00
2023-02-19T08:03:38.568Z,95603.00
2023-02-19T08:04:38.654Z,95592.00
2023-02-19T08:05:38.871Z,95588.00
2023-02-19T08:06:38.235Z,95601.00
2023-02-19T08:07:38.486Z,95615.00
2023-02-19T08:08:37.963Z,95617.00
2023-02-19T08:09:37.987Z,95613.00
2023-02-19T08:10:38.350Z,95607.00
2023-02-19T08:11:38.284Z,95603.00
2023-02-19T08:12:38.380Z,95609.00
2023-02-19T08:14:58.984Z,95609.00
2023-02-19T08:21:56.116Z,95615.00
2023-02-19T08:34:55.862Z,95590.00
2023-02-19T08:35:55.877Z,95596.00
2023-02-19T08:36:55.833Z,95597.00
2023-02-19T08:37:55.836Z,95599.00
2023-02-19T08:38:55.843Z,95597.00
2023-02-19T08:39:55.956Z,95597.00
2023-02-19T08:40:56.111Z,95601.00
2023-02-19T08:41:55.941Z,95601.00
2023-02-19T08:42:55.898Z,95605.00
2023-02-19T08:43:56.029Z,95596.00
2023-02-19T08:44:55.965Z,95592.00
2023-02-19T08:45:56.114Z,95605.00
2023-02-19T08:46:56.032Z,95613.00
2023-02-19T08:47:56.087Z,95621.00
2023-02-19T08:59:56.475Z,95603.00
2023-02-19T09:00:56.443Z,95607.00
2023-02-19T09:01:56.452Z,95607.00
2023-02-19T09:02:56.472Z,95601.00
2023-02-19T09:03:56.568Z,95601.00
2023-02-19T09:04:56.522Z,95605.00
2023-02-19T09:05:56.596Z,95607.00
2023-02-19T09:06:56.604Z,95611.00
2023-02-19T09:07:56.642Z,95617.00
2023-02-19T09:08:56.644Z,95607.00
2023-02-19T09:09:56.651Z,95605.00
2023-02-19T09:10:56.725Z,95597.00
2023-02-19T09:11:56.728Z,95580.00
2023-02-19T09:12:56.767Z,95580.00
2023-02-19T09:13:56.808Z,95586.00
2023-02-19T09:14:56.792Z,95596.00
2023-02-19T09:15:56.956Z,95603.00
2023-02-19T09:16:56.905Z,95599.00
2023-02-19T09:18:56.998Z,95605.00
2023-02-19T09:19:56.988Z,95605.00
2023-02-19T09:20:57.000Z,95599.00
2023-02-19T09:21:57.004Z,95597.00
2023-02-19T09:22:57.057Z,95597.00
2023-02-19T09:23:57.129Z,95592.00
2023-02-19T09:24:57.067Z,95594.00
2023-02-19T09:25:57.138Z,95597.00
2023-02-19T09:26:57.193Z,95596.00
2023-02-19T09:27:57.224Z,95594.00
2023-02-19T09:28:57.263Z,95596.00
2023-02-19T09:29:57.317Z,95596.00
2023-02-19T09:30:57.390Z,95592.00
2023-02-19T09:31:57.308Z,95576.00
2023-02-19T09:32:57.326Z,95574.00
2023-02-19T09:33:57.411Z,95578.00
2023-02-19T09:34:57.388Z,95584.00
2023-02-19T09:35:57.416Z,95586.00
2023-02-19T09:36:57.427Z,95582.00
2023-02-19T09:37:57.503Z,95582.00
2023-02-19T09:38:57.544Z,95584.00
2023-02-19T09:39:57.547Z,95584.00
2023-02-19T09:40:57.590Z,95570.00
2023-02-19T09:42:57.657Z,95556.00
2023-02-19T09:43:57.679Z,95556.00
2023-02-19T09:44:57.670Z,95572.00
2023-02-19T09:45:57.717Z,95584.00
2023-02-19T09:46:57.712Z,95580.00
2023-02-19T09:48:57.765Z,95556.00
2023-02-19T09:49:57.760Z,95545.00
2023-02-19T09:51:57.780Z,95552.00
2023-02-19T09:52:57.827Z,95556.00
2023-02-19T09:53:57.919Z,95570.00
2023-02-19T09:54:57.933Z,95564.00
2023-02-19T09:55:57.965Z,95564.00
2023-02-19T09:56:57.971Z,95558.00
2023-02-19T09:57:58.026Z,95560.00
2023-02-19T10:04:58.182Z,95560.00
2023-02-19T10:09:17.930Z,95574.00
2023-02-19T10:10:18.223Z,95574.00
2023-02-19T10:11:17.802Z,95574.00
2023-02-19T10:12:17.996Z,95578.00
2023-02-19T10:13:17.627Z,95556.00
2023-02-19T10:14:17.843Z,95552.00
2023-02-19T10:15:18.017Z,95554.00
2023-02-19T10:16:17.652Z,95562.00
2023-02-19T10:17:17.672Z,95568.00
2023-02-19T10:18:17.684Z,95566.00
2023-02-19T10:19:17.637Z,95562.00
2023-02-19T10:20:17.746Z,95562.00
2023-02-19T10:35:56.567Z,95572.00
2023-02-19T10:36:56.371Z,95580.00
2023-02-19T10:37:56.048Z,95576.00
2023-02-19T10:38:55.973Z,95576.00
2023-02-19T10:39:55.973Z,95576.00
2023-02-19T10:40:56.123Z,95568.00
2023-02-19T10:41:56.509Z,95572.00
2023-02-19T10:42:56.234Z,95572.00
2023-02-19T10:43:55.988Z,95572.00
2023-02-19T10:44:55.928Z,95572.00
2023-02-19T10:45:55.968Z,95572.00
2023-02-19T10:46:55.932Z,95570.00
2023-02-19T10:49:15.747Z,95564.00
2023-02-19T10:51:34.626Z,95547.00
2023-02-19T10:52:34.461Z,95558.00
2023-02-19T10:53:34.423Z,95554.00
2023-02-19T10:54:35.394Z,95547.00
2023-02-19T10:55:35.521Z,95549.00
2023-02-19T10:56:34.195Z,95552.00
2023-02-19T10:57:34.185Z,95547.00
2023-02-19T10:58:34.229Z,95554.00
2023-02-19T10:59:34.536Z,95552.00
2023-02-19T11:00:34.301Z,95558.00
2023-02-19T11:01:34.152Z,95556.00
2023-02-19T11:02:34.123Z,95547.00
2023-02-19T11:04:53.772Z,95537.00
2023-02-19T11:05:53.625Z,95535.00
2023-02-19T11:06:54.143Z,95541.00
2023-02-19T11:07:53.624Z,95537.00
2023-02-19T11:18:48.851Z,95517.00
2023-02-19T11:19:49.059Z,95509.00
2023-02-19T11:20:48.760Z,95505.00
2023-02-19T11:21:50.235Z,95500.00
2023-02-19T11:24:09.567Z,95511.00
2023-02-19T11:25:23.455Z,95511.00
2023-02-19T11:26:08.392Z,95507.00
2023-02-19T11:27:08.150Z,95494.00
2023-02-19T11:29:29.027Z,95505.00
2023-02-19T11:30:27.975Z,95509.00
2023-02-19T11:31:28.321Z,95515.00
2023-02-19T11:32:27.530Z,95507.00
2023-02-19T11:33:27.561Z,95492.00
2023-02-19T11:34:27.266Z,95486.00
2023-02-19T11:35:27.490Z,95480.00
2023-02-19T11:36:29.739Z,95480.00
2023-02-19T11:38:47.183Z,95474.00
2023-02-19T11:43:46.238Z,95460.00
2023-02-19T11:44:46.533Z,95460.00
2023-02-19T11:45:46.004Z,95456.00
2023-02-19T11:46:47.023Z,95460.00
2023-02-19T11:47:45.659Z,95458.00
2023-02-19T12:13:34.364Z,95390.00
2023-02-19T12:23:44.569Z,95351.00
2023-02-19T12:25:54.468Z,95343.00
2023-02-19T12:40:01.016Z,95345.00
2023-02-19T12:42:26.391Z,95355.00
2023-02-19T12:46:01.877Z,95345.00
2023-02-19T12:47:02.254Z,95361.00
2023-02-19T12:53:39.213Z,95353.00
2023-02-19T13:09:39.130Z,95347.00
2023-02-19T13:23:37.048Z,95374.00
2023-02-19T14:09:11.280Z,95417.00
2023-02-19T14:10:11.082Z,95415.00
2023-02-19T14:14:50.240Z,95407.00
2023-02-19T14:45:38.778Z,95409.00
2023-02-19T14:47:51.860Z,95405.00
2023-02-19T14:50:10.491Z,95415.00
2023-02-19T14:51:10.514Z,95427.00
2023-02-19T14:52:10.624Z,95427.00
2023-02-19T14:53:09.917Z,95425.00
2023-02-19T14:54:09.883Z,95431.00
2023-02-19T14:55:09.919Z,95433.00
2023-02-19T14:56:09.849Z,95427.00
2023-02-19T14:57:09.934Z,95431.00
2023-02-19T14:58:10.091Z,95425.00
2023-02-19T15:04:13.473Z,95427.00
2023-02-19T15:25:47.876Z,95447.00
2023-02-19T15:26:47.886Z,95439.00
2023-02-19T15:27:47.944Z,95441.00
2023-02-19T15:28:47.876Z,95449.00
2023-02-19T15:29:47.877Z,95447.00
2023-02-19T15:30:47.864Z,95451.00
2023-02-19T15:31:47.924Z,95456.00
2023-02-19T15:32:47.834Z,95462.00
2023-02-19T15:33:47.846Z,95458.00
2023-02-19T15:34:47.835Z,95462.00
2023-02-19T15:35:47.801Z,95468.00
2023-02-19T15:36:47.823Z,95466.00
2023-02-19T15:37:47.817Z,95464.00
2023-02-19T15:38:48.297Z,95468.00
2023-02-19T15:39:48.023Z,95480.00
2023-02-19T15:40:47.864Z,95474.00
2023-02-19T15:41:48.706Z,95470.00
2023-02-19T15:42:49.435Z,95468.00
2023-02-19T15:43:48.777Z,95474.00
2023-02-19T15:44:48.633Z,95478.00
2023-02-19T15:45:48.494Z,95470.00
2023-02-19T15:46:48.466Z,95464.00
2023-02-19T15:47:48.656Z,95490.00
2023-02-19T15:51:07.512Z,95472.00
2023-02-19T15:52:07.472Z,95478.00
2023-02-19T15:53:07.090Z,95484.00
2023-02-19T15:55:07.194Z,95480.00
2023-02-19T15:56:07.402Z,95486.00
2023-02-19T15:57:07.034Z,95496.00
2023-02-19T15:58:07.099Z,95494.00
2023-02-19T15:59:07.119Z,95494.00
2023-02-19T16:00:07.022Z,95480.00
2023-02-19T16:01:07.068Z,95484.00
2023-02-19T16:02:07.037Z,95490.00
2023-02-19T16:03:07.128Z,95496.00
2023-02-19T16:04:07.036Z,95496.00
2023-02-19T16:05:07.072Z,95492.00
2023-02-19T16:06:06.961Z,95488.00
2023-02-19T16:07:07.011Z,95494.00
2023-02-19T16:08:08.131Z,95509.00
2023-02-19T16:09:08.939Z,95509.00
2023-02-19T16:11:27.145Z,95511.00
2023-02-19T16:13:35.988Z,95513.00
2023-02-19T16:14:27.291Z,95515.00
2023-02-19T16:15:26.878Z,95517.00
2023-02-19T16:16:26.937Z,95525.00
2023-02-19T16:17:26.894Z,95525.00
2023-02-19T16:43:20.433Z,95552.00
2023-02-19T16:44:21.164Z,95552.00
2023-02-19T16:45:20.453Z,95552.00
2023-02-19T16:46:20.224Z,95556.00
2023-02-19T16:47:20.355Z,95554.00
2023-02-19T16:48:21.397Z,95552.00
2023-02-19T16:50:39.962Z,95549.00
2023-02-19T16:51:42.330Z,95550.00
2023-02-19T16:54:06.270Z,95560.00
2023-02-19T16:59:12.744Z,95566.00
2023-02-19T17:00:12.508Z,95572.00
2023-02-19T17:01:13.284Z,95574.00
2023-02-19T17:02:13.188Z,95572.00
2023-02-19T17:03:12.465Z,95574.00
2023-02-19T17:04:12.463Z,95582.00
2023-02-19T17:05:12.439Z,95590.00
2023-02-19T17:06:12.477Z,95597.00
2023-02-19T17:07:12.409Z,95601.00
2023-02-19T17:08:12.419Z,95605.00
2023-02-19T17:09:12.500Z,95607.00
2023-02-19T17:10:12.421Z,95607.00
2023-02-19T17:11:12.595Z,95615.00
2023-02-19T17:12:12.411Z,95619.00
2023-02-19T17:13:12.365Z,95623.00
2023-02-19T17:14:12.381Z,95625.00
2023-02-19T17:15:12.331Z,95623.00
2023-02-19T17:16:12.345Z,95627.00
2023-02-19T17:17:12.386Z,95639.00
2023-02-19T17:18:12.375Z,95644.00
2023-02-19T17:19:12.317Z,95648.00
2023-02-19T17:20:12.300Z,95654.00
2023-02-19T17:21:12.544Z,95660.00
2023-02-19T17:22:12.280Z,95662.00
2023-02-19T17:23:12.329Z,95664.00
2023-02-19T17:24:12.389Z,95664.00
2023-02-19T17:25:12.449Z,95672.00
2023-02-19T17:26:12.369Z,95674.00
2023-02-19T17:27:12.419Z,95674.00
2023-02-19T17:28:12.442Z,95682.00
2023-02-19T17:29:12.483Z,95672.00
2023-02-19T17:30:12.589Z,95674.00
2023-02-19T17:31:12.929Z,95672.00
2023-02-19T17:32:12.732Z,95674.00
2023-02-19T17:33:12.674Z,95686.00
2023-02-19T17:34:12.813Z,95686.00
2023-02-19T17:35:12.820Z,95686.00
2023-02-19T17:36:12.850Z,95684.00
2023-02-19T17:37:12.831Z,95688.00
2023-02-19T17:38:12.904Z,95694.00
2023-02-19T17:40:34.094Z,95701.00
2023-02-19T17:41:35.143Z,95701.00
2023-02-19T17:42:33.898Z,95707.00
2023-02-19T17:43:33.408Z,95711.00
2023-02-19T17:44:33.379Z,95709.00
2023-02-19T17:48:46.628Z,95717.00
2023-02-19T17:52:20.582Z,95717.00
2023-02-19T17:53:20.478Z,95719.00
2023-02-19T17:59:40.842Z,95737.00
2023-02-19T18:00:41.398Z,95737.00
2023-02-19T18:01:40.775Z,95731.00
2023-02-19T18:02:40.317Z,95733.00
2023-02-19T18:03:40.408Z,95741.00
2023-02-19T18:04:41.213Z,95746.00
2023-02-19T18:05:40.841Z,95754.00
2023-02-19T18:12:39.752Z,95780.00
2023-02-19T18:13:39.568Z,95776.00
2023-02-19T18:14:39.711Z,95770.00
2023-02-19T18:15:39.445Z,95772.00
2023-02-19T18:16:39.410Z,95772.00
2023-02-19T18:17:39.504Z,95770.00
2023-02-19T18:18:39.392Z,95774.00
2023-02-19T18:19:39.410Z,95776.00
2023-02-19T18:20:39.490Z,95778.00
2023-02-19T18:21:39.351Z,95788.00
2023-02-19T18:22:39.365Z,95791.00
2023-02-19T18:23:39.372Z,95797.00
2023-02-19T18:24:40.204Z,95801.00
2023-02-19T18:25:39.394Z,95801.00
2023-02-19T18:26:39.356Z,95803.00
2023-02-19T18:27:39.343Z,95803.00
2023-02-19T18:28:39.642Z,95801.00
2023-02-19T18:41:22.933Z,95825.00
2023-02-19T18:42:24.032Z,95821.00
2023-02-19T19:03:41.713Z,95837.00
2023-02-19T19:31:21.481Z,95870.00
2023-02-19T19:32:23.823Z,95870.00
2023-02-19T19:34:41.191Z,95874.00
2023-02-19T19:53:19.851Z,95891.00
2023-02-19T19:59:57.855Z,95901.00
2023-02-19T20:01:57.447Z,95895.00
2023-02-19T20:06:16.793Z,95887.00
2023-02-19T20:07:16.441Z,95883.00
2023-02-19T20:08:16.512Z,95885.00
2023-02-19T20:09:16.468Z,95883.00
2023-02-19T20:10:16.571Z,95885.00
2023-02-19T20:11:16.634Z,95885.00
2023-02-19T20:12:16.752Z,95891.00
2023-02-19T20:13:17.255Z,95889.00
2023-02-19T20:15:36.537Z,95895.00
2023-02-19T20:16:36.538Z,95895.00
2023-02-19T20:17:36.185Z,95893.00
2023-02-19T20:18:36.216Z,95893.00
2023-02-19T20:19:36.208Z,95895.00
2023-02-19T20:20:36.193Z,95895.00
2023-02-19T20:21:36.168Z,95893.00
2023-02-19T20:22:36.174Z,95895.00
2023-02-19T20:23:36.189Z,95897.00
2023-02-19T20:24:36.149Z,95897.00
2023-02-19T20:25:36.157Z,95895.00
2023-02-19T20:26:36.120Z,95897.00
2023-02-19T20:27:36.201Z,95901.00
2023-02-19T20:28:36.119Z,95901.00
2023-02-19T20:29:36.099Z,95901.00
2023-02-19T20:30:36.116Z,95903.00
2023-02-19T20:31:36.220Z,95905.00
2023-02-19T20:32:36.104Z,95903.00
2023-02-19T20:33:36.065Z,95903.00
2023-02-19T20:34:36.058Z,95905.00
2023-02-19T20:35:36.055Z,95907.00
2023-02-19T20:36:36.062Z,95907.00
2023-02-19T20:37:36.032Z,95909.00
2023-02-19T20:39:56.112Z,95911.00
2023-02-19T20:40:56.322Z,95913.00
2023-02-19T20:41:56.112Z,95913.00
2023-02-19T20:42:56.029Z,95913.00
2023-02-19T20:43:56.056Z,95917.00
2023-02-19T20:44:56.011Z,95921.00
2023-02-19T20:45:56.051Z,95919.00
2023-02-19T20:46:56.003Z,95923.00
2023-02-19T20:47:55.972Z,95921.00
2023-02-19T20:48:56.158Z,95923.00
2023-02-19T20:49:56.052Z,95924.00
2023-02-19T20:50:56.009Z,95928.00
2023-02-19T20:51:55.985Z,95930.00
2023-02-19T20:54:16.587Z,95928.00
2023-02-19T20:55:16.334Z,95930.00
2023-02-19T21:01:50.316Z,95938.00
2023-02-19T21:03:54.976Z,95948.00
2023-02-19T21:04:54.649Z,95948.00
2023-02-19T21:05:54.665Z,95950.00
2023-02-19T21:06:54.663Z,95946.00
2023-02-19T21:07:54.628Z,95950.00
2023-02-19T21:08:54.601Z,95952.00
2023-02-19T21:09:54.886Z,95958.00
2023-02-19T21:10:54.625Z,95960.00
2023-02-19T21:11:54.593Z,95960.00
2023-02-19T21:12:54.619Z,95962.00
2023-02-19T21:13:54.635Z,95966.00
2023-02-19T21:14:54.648Z,95968.00
2023-02-19T21:15:54.856Z,95970.00
2023-02-19T21:16:54.559Z,95970.00
2023-02-19T21:17:54.666Z,95966.00
2023-02-19T21:18:54.687Z,95970.00
2023-02-19T21:19:54.765Z,95970.00
2023-02-19T21:20:54.825Z,95970.00
2023-02-19T21:21:54.897Z,95968.00
2023-02-19T21:22:54.907Z,95970.00
2023-02-19T21:26:34.661Z,95970.00
2023-02-19T21:27:34.332Z,95972.00
2023-02-19T21:28:34.242Z,95974.00
2023-02-19T21:29:34.292Z,95974.00
2023-02-19T21:30:34.306Z,95974.00
2023-02-19T21:31:34.314Z,95976.00
2023-02-19T21:32:34.272Z,95970.00
2023-02-19T21:33:34.210Z,95968.00
2023-02-19T21:34:34.211Z,95968.00
2023-02-19T21:35:34.214Z,95968.00
2023-02-19T21:36:34.204Z,95966.00
2023-02-19T21:37:34.245Z,95962.00
2023-02-19T21:38:34.200Z,95966.00
2023-02-19T21:39:34.171Z,95968.00
2023-02-19T21:40:34.211Z,95966.00
2023-02-19T21:41:34.172Z,95970.00
2023-02-19T21:42:34.152Z,95968.00
2023-02-19T21:43:34.166Z,95974.00
2023-02-19T21:44:34.080Z,95972.00
2023-02-19T21:47:53.827Z,95978.00
2023-02-19T21:48:54.020Z,95978.00
2023-02-19T21:49:53.705Z,95982.00
2023-02-19T21:50:53.795Z,95978.00
2023-02-19T21:51:54.244Z,95974.00
2023-02-19T21:52:53.709Z,95972.00
2023-02-19T21:53:53.696Z,95974.00
2023-02-19T21:54:53.687Z,95974.00
2023-02-19T21:55:58.726Z,95976.00
2023-02-19T21:56:54.668Z,95978.00
2023-02-19T21:57:53.650Z,95976.00
2023-02-19T21:58:53.629Z,95978.00
2023-02-19T21:59:53.610Z,95978.00
2023-02-19T22:00:53.750Z,95982.00
2023-02-19T22:01:53.589Z,95984.00
2023-02-19T22:02:53.739Z,95985.00
2023-02-19T22:03:53.620Z,95987.00
2023-02-19T22:04:53.588Z,95989.00
2023-02-19T22:05:53.580Z,95991.00
2023-02-19T22:06:53.591Z,95993.00
2023-02-19T22:07:53.580Z,95995.00
2023-02-19T22:08:53.560Z,95999.00
2023-02-19T22:09:53.571Z,95997.00
2023-02-19T22:10:53.575Z,95997.00